createdAt,value
2022-11-29T00:00:52.356Z,13.80
2022-11-29T00:03:19.819Z,14.67
2022-11-29T00:05:47.222Z,14.30
2022-11-29T00:08:14.571Z,14.63
2022-11-29T00:10:43.219Z,14.70
2022-11-29T00:13:09.694Z,14.87
2022-11-29T00:15:37.631Z,14.73
2022-11-29T00:18:05.574Z,13.80
2022-11-29T00:20:33.052Z,13.90
2022-11-29T00:23:00.655Z,13.97
2022-11-29T00:25:28.166Z,13.67
2022-11-29T00:27:56.958Z,13.13
2022-11-29T00:30:24.542Z,13.53
2022-11-29T00:32:51.980Z,13.50
2022-11-29T00:35:19.525Z,13.37
2022-11-29T00:37:46.975Z,13.30
2022-11-29T00:40:14.421Z,13.63
2022-11-29T00:42:41.858Z,12.80
2022-11-29T00:45:11.580Z,13.20
2022-11-29T00:47:39.037Z,12.80
2022-11-29T00:50:07.449Z,13.57
2022-11-29T00:52:35.099Z,12.77
2022-11-29T00:55:02.602Z,13.90
2022-11-29T00:57:29.977Z,13.60
2022-11-29T00:59:57.497Z,13.43
2022-11-29T01:02:26.329Z,13.33
2022-11-29T01:04:53.801Z,13.73
2022-11-29T01:07:21.251Z,13.17
2022-11-29T01:09:48.770Z,13.33
2022-11-29T01:12:16.166Z,14.07
2022-11-29T01:14:44.338Z,14.33
2022-11-29T01:17:11.985Z,14.20
2022-11-29T01:19:41.712Z,12.97
2022-11-29T01:22:13.538Z,12.90
2022-11-29T01:24:41.405Z,13.00
2022-11-29T01:27:09.984Z,12.90
2022-11-29T01:29:37.405Z,13.43
2022-11-29T01:32:05.010Z,13.17
2022-11-29T01:34:32.460Z,13.40
2022-11-29T01:37:01.235Z,12.90
2022-11-29T01:39:28.658Z,12.70
2022-11-29T01:41:56.067Z,13.07
2022-11-29T01:44:42.669Z,13.70
2022-11-29T01:47:11.220Z,13.93
2022-11-29T01:49:39.995Z,13.27
2022-11-29T01:52:10.982Z,13.13
2022-11-29T01:54:39.809Z,13.20
2022-11-29T01:57:08.342Z,13.57
2022-11-29T01:59:37.321Z,12.97
2022-11-29T02:02:06.991Z,13.20
2022-11-29T02:04:34.884Z,13.30
2022-11-29T02:07:02.382Z,13.27
2022-11-29T02:09:31.241Z,13.67
2022-11-29T02:12:03.229Z,13.20
2022-11-29T02:14:39.513Z,13.43
2022-11-29T02:17:11.269Z,13.50
2022-11-29T02:19:54.399Z,13.77
2022-11-29T02:22:25.505Z,13.00
2022-11-29T02:25:10.069Z,13.50
2022-11-29T02:27:58.203Z,12.77
2022-11-29T02:30:37.039Z,12.97
2022-11-29T02:33:22.542Z,12.40
2022-11-29T02:36:13.468Z,13.10
2022-11-29T02:38:48.915Z,12.77
2022-11-29T02:41:21.649Z,12.97
2022-11-29T02:44:18.452Z,12.53
2022-11-29T02:46:52.584Z,11.67
2022-11-29T02:49:25.430Z,12.60
2022-11-29T02:51:57.841Z,11.87
2022-11-29T02:54:27.600Z,12.30
2022-11-29T02:56:56.655Z,12.10
2022-11-29T02:59:30.594Z,12.20
2022-11-29T03:02:03.036Z,11.83
2022-11-29T03:04:33.053Z,11.80
2022-11-29T03:07:05.387Z,12.83
2022-11-29T03:09:36.311Z,11.20
2022-11-29T03:12:05.029Z,11.80
2022-11-29T03:14:39.155Z,11.43
2022-11-29T03:17:16.887Z,11.23
2022-11-29T03:20:02.059Z,12.17
2022-11-29T03:22:39.550Z,12.20
2022-11-29T03:25:09.215Z,12.23
2022-11-29T03:27:39.316Z,12.00
2022-11-29T03:30:09.464Z,11.37
2022-11-29T03:32:41.160Z,11.07
2022-11-29T03:35:12.576Z,11.33
2022-11-29T03:37:46.070Z,11.47
2022-11-29T03:40:15.414Z,11.87
2022-11-29T03:42:46.854Z,11.47
2022-11-29T03:45:18.606Z,12.30
2022-11-29T03:47:49.899Z,12.60
2022-11-29T03:50:19.462Z,10.63
2022-11-29T03:52:50.758Z,11.40
2022-11-29T03:55:24.069Z,11.43
2022-11-29T03:57:57.736Z,11.50
2022-11-29T04:00:25.508Z,11.37
2022-11-29T04:03:15.891Z,11.73
2022-11-29T04:05:54.228Z,11.40
2022-11-29T04:08:36.552Z,11.70
2022-11-29T04:11:21.984Z,11.50
2022-11-29T04:14:09.024Z,11.07
2022-11-29T04:16:56.706Z,11.30
2022-11-29T04:19:39.016Z,11.40
2022-11-29T04:22:21.662Z,12.87
2022-11-29T04:25:00.466Z,11.53
2022-11-29T04:27:40.343Z,11.87
2022-11-29T04:30:10.859Z,12.17
2022-11-29T04:33:08.731Z,12.20
2022-11-29T04:35:56.542Z,11.27
2022-11-29T04:38:32.964Z,12.23
2022-11-29T04:41:06.657Z,11.43
2022-11-29T04:43:55.501Z,11.90
2022-11-29T04:46:46.972Z,11.87
2022-11-29T04:49:20.086Z,12.50
2022-11-29T04:51:57.933Z,12.10
2022-11-29T04:54:29.848Z,11.80
2022-11-29T04:57:02.751Z,12.13
2022-11-29T04:59:37.788Z,12.07
2022-11-29T05:02:08.170Z,12.30
2022-11-29T05:04:39.880Z,12.97
2022-11-29T05:07:09.209Z,12.47
2022-11-29T05:09:41.683Z,12.40
2022-11-29T05:12:11.807Z,11.90
2022-11-29T05:15:02.780Z,12.10
2022-11-29T05:17:39.221Z,12.33
2022-11-29T05:20:16.045Z,13.40
2022-11-29T05:22:49.174Z,13.70
2022-11-29T05:25:26.960Z,13.97
2022-11-29T05:27:58.157Z,15.63
2022-11-29T05:30:31.973Z,16.80
2022-11-29T05:33:06.712Z,15.90
2022-11-29T05:35:40.771Z,16.37
2022-11-29T05:38:13.474Z,16.60
2022-11-29T05:40:45.172Z,17.73
2022-11-29T05:43:23.622Z,18.27
2022-11-29T05:45:56.271Z,20.23
2022-11-29T05:48:27.308Z,18.63
2022-11-29T05:51:04.200Z,19.23
2022-11-29T05:53:35.117Z,19.30
2022-11-29T05:56:05.285Z,20.43
2022-11-29T05:58:39.261Z,21.10
2022-11-29T06:01:13.204Z,20.03
2022-11-29T06:03:44.675Z,19.43
2022-11-29T06:06:15.171Z,20.20
2022-11-29T06:08:46.771Z,19.87
2022-11-29T06:11:16.582Z,20.20
2022-11-29T06:13:51.732Z,19.87
2022-11-29T06:16:34.167Z,20.30
2022-11-29T06:19:20.763Z,20.13
2022-11-29T06:21:55.012Z,19.70
2022-11-29T06:24:37.854Z,19.53
2022-11-29T06:27:17.260Z,19.43
2022-11-29T06:29:48.078Z,19.90
2022-11-29T06:32:21.666Z,19.63
2022-11-29T06:34:55.528Z,20.27
2022-11-29T06:37:24.891Z,19.80
2022-11-29T06:39:52.658Z,18.97
2022-11-29T06:42:20.033Z,18.70
2022-11-29T06:44:48.024Z,19.33
2022-11-29T06:47:20.112Z,19.47
2022-11-29T06:49:49.165Z,19.67
2022-11-29T06:52:23.864Z,20.03
2022-11-29T06:55:01.218Z,19.60
2022-11-29T06:57:33.164Z,20.10
2022-11-29T07:00:04.981Z,19.97
2022-11-29T07:02:40.646Z,19.20
2022-11-29T07:05:14.908Z,21.87
2022-11-29T07:07:44.126Z,23.40
2022-11-29T07:10:15.333Z,21.17
2022-11-29T07:12:43.062Z,23.13
2022-11-29T07:15:13.521Z,23.80
2022-11-29T07:17:46.238Z,25.83
2022-11-29T07:20:17.933Z,26.17
2022-11-29T07:22:56.256Z,25.07
2022-11-29T07:25:29.620Z,26.30
2022-11-29T07:28:03.337Z,26.57
2022-11-29T07:30:35.645Z,27.93
2022-11-29T07:33:06.841Z,29.30
2022-11-29T07:35:38.298Z,29.30
2022-11-29T07:38:11.013Z,29.10
2022-11-29T07:40:43.801Z,30.20
2022-11-29T07:43:18.524Z,29.87
2022-11-29T07:45:46.453Z,30.70
2022-11-29T07:48:14.170Z,30.83
2022-11-29T07:50:41.744Z,32.10
2022-11-29T07:53:14.303Z,34.17
2022-11-29T07:55:41.703Z,32.80
2022-11-29T07:58:11.347Z,32.80
2022-11-29T08:00:38.833Z,32.83
2022-11-29T08:03:06.513Z,32.37
2022-11-29T08:05:34.040Z,34.63
2022-11-29T08:08:01.767Z,38.00
2022-11-29T08:10:30.685Z,39.00
2022-11-29T08:12:58.328Z,41.73
2022-11-29T08:15:26.268Z,34.97
2022-11-29T08:17:54.042Z,33.80
2022-11-29T08:20:21.525Z,35.93
2022-11-29T08:22:54.373Z,34.13
2022-11-29T08:25:21.843Z,32.20
2022-11-29T08:27:51.632Z,32.50
2022-11-29T08:30:22.170Z,33.40
2022-11-29T08:32:51.763Z,32.27
2022-11-29T08:35:19.778Z,31.60
2022-11-29T08:37:47.379Z,32.20
2022-11-29T08:40:15.059Z,31.67
2022-11-29T08:42:42.498Z,31.20
2022-11-29T08:45:11.745Z,32.50
2022-11-29T08:47:41.066Z,32.07
2022-11-29T08:50:14.208Z,31.03
2022-11-29T08:53:00.208Z,29.73
2022-11-29T08:55:28.822Z,30.30
2022-11-29T08:58:01.276Z,29.77
2022-11-29T09:00:30.244Z,31.03
2022-11-29T09:03:18.035Z,29.17
2022-11-29T09:05:45.563Z,28.40
2022-11-29T09:08:13.047Z,28.30
2022-11-29T09:10:40.969Z,28.83
2022-11-29T09:13:08.451Z,28.40
2022-11-29T09:15:37.276Z,28.80
2022-11-29T09:18:05.578Z,29.60
2022-11-29T09:20:33.359Z,27.33
2022-11-29T09:23:01.025Z,27.60
2022-11-29T09:25:29.205Z,27.80
2022-11-29T09:27:58.553Z,27.63
2022-11-29T09:30:26.433Z,27.17
2022-11-29T09:32:55.284Z,26.87
2022-11-29T09:35:22.636Z,26.00
2022-11-29T09:37:49.989Z,25.63
2022-11-29T09:40:19.722Z,24.97
2022-11-29T09:42:51.870Z,26.87
2022-11-29T09:45:21.245Z,24.73
2022-11-29T09:48:03.567Z,24.47
2022-11-29T09:50:34.796Z,24.93
2022-11-29T09:53:07.890Z,24.00
2022-11-29T09:55:40.036Z,24.00
2022-11-29T09:58:08.772Z,24.33
2022-11-29T10:00:39.241Z,23.10
2022-11-29T10:03:13.816Z,23.93
2022-11-29T10:05:46.833Z,24.17
2022-11-29T10:08:16.472Z,24.37
2022-11-29T10:10:45.707Z,23.33
2022-11-29T10:13:17.023Z,23.40
2022-11-29T10:15:45.327Z,22.90
2022-11-29T10:18:17.722Z,23.37
2022-11-29T10:20:49.183Z,23.17
2022-11-29T10:23:19.289Z,22.30
2022-11-29T10:25:48.067Z,22.70
2022-11-29T10:28:16.911Z,21.40
2022-11-29T10:30:44.389Z,21.80
2022-11-29T10:33:16.973Z,21.83
2022-11-29T10:35:46.232Z,21.60
2022-11-29T10:38:30.359Z,20.93
2022-11-29T10:41:03.342Z,21.33
2022-11-29T10:43:30.960Z,20.30
2022-11-29T10:45:58.895Z,20.30
2022-11-29T10:48:28.611Z,22.23
2022-11-29T10:50:57.447Z,23.17
2022-11-29T10:53:25.624Z,21.90
2022-11-29T10:55:57.043Z,21.73
2022-11-29T10:58:28.318Z,21.43
2022-11-29T11:00:57.309Z,22.73
2022-11-29T11:03:36.440Z,21.67
2022-11-29T11:06:07.599Z,22.50
2022-11-29T11:08:35.784Z,21.97
2022-11-29T11:11:04.443Z,21.00
2022-11-29T11:13:32.437Z,20.10
2022-11-29T11:16:08.637Z,19.63
2022-11-29T11:18:36.737Z,19.67
2022-11-29T11:21:04.622Z,21.07
2022-11-29T11:23:36.495Z,23.07
2022-11-29T11:26:08.385Z,21.67
2022-11-29T11:28:38.014Z,22.37
2022-11-29T11:31:08.288Z,23.23
2022-11-29T11:33:37.682Z,22.90
2022-11-29T11:36:09.808Z,21.90
2022-11-29T11:38:39.677Z,23.77
2022-11-29T11:41:13.575Z,22.77
2022-11-29T11:43:41.042Z,23.37
2022-11-29T11:46:09.350Z,24.30
2022-11-29T11:48:40.446Z,22.37
2022-11-29T11:51:20.022Z,22.63
2022-11-29T11:53:50.740Z,24.83
2022-11-29T11:56:18.265Z,22.00
2022-11-29T11:58:48.601Z,24.30
2022-11-29T12:01:17.474Z,22.93
2022-11-29T12:03:48.677Z,23.93
2022-11-29T12:06:46.206Z,24.50
2022-11-29T12:09:19.631Z,22.80
2022-11-29T12:11:50.505Z,24.20
2022-11-29T12:14:22.866Z,24.77
2022-11-29T12:16:50.988Z,24.67
2022-11-29T12:19:20.336Z,24.97
2022-11-29T12:21:52.469Z,23.67
2022-11-29T12:24:22.681Z,23.43
2022-11-29T12:26:59.051Z,22.90
2022-11-29T12:29:28.763Z,23.00
2022-11-29T12:32:03.114Z,23.47
2022-11-29T12:34:42.792Z,22.10
2022-11-29T12:37:13.275Z,22.97
2022-11-29T12:39:49.491Z,22.70
2022-11-29T12:42:22.474Z,23.57
2022-11-29T12:44:54.977Z,22.00
2022-11-29T12:47:35.578Z,21.90
2022-11-29T12:50:08.309Z,22.83
2022-11-29T12:52:41.056Z,22.67
2022-11-29T12:55:17.198Z,23.33
2022-11-29T12:57:48.558Z,23.30
2022-11-29T13:00:16.842Z,22.03
2022-11-29T13:02:50.307Z,21.43
2022-11-29T13:05:21.111Z,21.53
2022-11-29T13:07:57.414Z,22.17
2022-11-29T13:10:36.489Z,22.37
2022-11-29T13:13:06.141Z,21.63
2022-11-29T13:15:38.071Z,21.30
2022-11-29T13:18:08.428Z,21.80
2022-11-29T13:20:39.686Z,21.30
2022-11-29T13:23:14.109Z,22.07
2022-11-29T13:25:43.889Z,23.10
2022-11-29T13:28:15.424Z,23.13
2022-11-29T13:30:43.133Z,22.53
2022-11-29T13:33:16.127Z,22.20
2022-11-29T13:35:48.141Z,20.87
2022-11-29T13:38:19.988Z,21.70
2022-11-29T13:40:53.113Z,21.00
2022-11-29T13:43:23.897Z,21.63
2022-11-29T13:45:54.798Z,21.40
2022-11-29T13:48:27.773Z,20.67
2022-11-29T13:50:55.938Z,21.47
2022-11-29T13:53:24.509Z,22.40
2022-11-29T13:56:00.154Z,22.33
2022-11-29T13:58:33.769Z,21.93
2022-11-29T14:01:01.797Z,21.80
2022-11-29T14:03:30.748Z,23.30
2022-11-29T14:06:07.625Z,23.27
2022-11-29T14:09:10.339Z,21.30
2022-11-29T14:11:26.084Z,21.37
2022-11-29T14:13:55.083Z,22.40
2022-11-29T14:16:27.486Z,22.30
2022-11-29T14:19:04.851Z,23.03
2022-11-29T14:21:50.851Z,23.93
2022-11-29T14:24:38.967Z,23.83
2022-11-29T14:27:21.281Z,22.67
2022-11-29T14:29:54.566Z,23.60
2022-11-29T14:32:23.204Z,23.87
2022-11-29T14:34:55.155Z,23.43
2022-11-29T14:37:27.975Z,23.30
2022-11-29T14:39:56.006Z,22.27
2022-11-29T14:42:30.530Z,22.40
2022-11-29T14:45:01.342Z,23.33
2022-11-29T14:47:31.763Z,22.77
2022-11-29T14:50:00.801Z,24.13
2022-11-29T14:52:30.023Z,23.40
2022-11-29T14:54:59.414Z,22.17
2022-11-29T14:57:45.868Z,21.27
2022-11-29T15:00:15.791Z,23.37
2022-11-29T15:02:45.731Z,22.67
2022-11-29T15:05:15.526Z,21.37
2022-11-29T15:07:44.796Z,22.57
2022-11-29T15:10:18.709Z,21.40
2022-11-29T15:12:46.843Z,21.23
2022-11-29T15:15:25.046Z,21.07
2022-11-29T15:17:55.333Z,22.10
2022-11-29T15:20:32.126Z,21.93
2022-11-29T15:23:00.957Z,21.17
2022-11-29T15:25:31.028Z,21.23
2022-11-29T15:27:59.417Z,21.30
2022-11-29T15:30:32.954Z,21.13
2022-11-29T15:33:01.473Z,21.17
2022-11-29T15:35:29.042Z,20.40
2022-11-29T15:37:56.756Z,20.43
2022-11-29T15:40:26.286Z,21.03
2022-11-29T15:42:57.826Z,20.50
2022-11-29T15:45:26.494Z,21.13
2022-11-29T15:47:55.382Z,20.47
2022-11-29T15:50:26.897Z,20.80
2022-11-29T15:52:56.557Z,20.70
2022-11-29T15:55:24.242Z,20.20
2022-11-29T15:57:53.225Z,22.33
2022-11-29T16:00:23.927Z,24.10
2022-11-29T16:02:53.184Z,22.10
2022-11-29T16:05:23.660Z,24.07
2022-11-29T16:07:52.704Z,21.30
2022-11-29T16:10:21.451Z,20.40
2022-11-29T16:12:53.201Z,18.93
2022-11-29T16:15:30.431Z,20.70
2022-11-29T16:18:02.686Z,20.73
2022-11-29T16:20:32.276Z,20.73
2022-11-29T16:23:03.867Z,19.60
2022-11-29T16:25:37.372Z,19.40
2022-11-29T16:28:05.906Z,20.37
2022-11-29T16:30:33.452Z,21.33
2022-11-29T16:33:03.433Z,23.23
2022-11-29T16:35:33.757Z,22.77
2022-11-29T16:38:04.236Z,22.27
2022-11-29T16:40:32.318Z,20.73
2022-11-29T16:43:08.054Z,21.17
2022-11-29T16:45:36.589Z,19.83
2022-11-29T16:48:15.350Z,20.47
2022-11-29T16:50:46.019Z,22.50
2022-11-29T16:53:32.121Z,22.83
2022-11-29T16:55:59.557Z,22.10
2022-11-29T16:58:27.175Z,20.70
2022-11-29T17:00:55.339Z,21.83
2022-11-29T17:03:22.999Z,21.87
2022-11-29T17:05:52.036Z,21.23
2022-11-29T17:08:19.433Z,22.20
2022-11-29T17:10:46.946Z,22.30
2022-11-29T17:13:14.412Z,22.03
2022-11-29T17:15:41.851Z,21.00
2022-11-29T17:18:09.362Z,21.37
2022-11-29T17:20:36.921Z,20.80
2022-11-29T17:23:05.692Z,21.70
2022-11-29T17:25:33.097Z,20.37
2022-11-29T17:28:00.581Z,22.50
2022-11-29T17:30:29.962Z,23.40
2022-11-29T17:32:57.430Z,22.43
2022-11-29T17:35:24.920Z,24.30
2022-11-29T17:37:52.328Z,25.63
2022-11-29T17:40:21.187Z,23.87
2022-11-29T17:42:48.593Z,21.50
2022-11-29T17:45:16.277Z,20.53
2022-11-29T17:47:43.685Z,20.53
2022-11-29T17:50:11.723Z,19.87
2022-11-29T17:52:39.722Z,21.10
2022-11-29T17:55:07.777Z,21.03
2022-11-29T17:57:36.662Z,20.80
2022-11-29T18:00:06.259Z,20.93
2022-11-29T18:02:33.731Z,19.53
2022-11-29T18:05:01.333Z,19.87
2022-11-29T18:07:28.805Z,19.20
2022-11-29T18:09:56.253Z,20.73
2022-11-29T18:12:23.927Z,19.20
2022-11-29T18:14:52.684Z,19.73
2022-11-29T18:17:20.072Z,19.70
2022-11-29T18:19:47.750Z,18.80
2022-11-29T18:22:15.465Z,18.87
2022-11-29T18:24:44.113Z,18.83
2022-11-29T18:27:11.550Z,20.30
2022-11-29T18:29:39.453Z,20.33
2022-11-29T18:32:08.308Z,18.70
2022-11-29T18:34:35.689Z,19.40
2022-11-29T18:37:03.117Z,19.97
2022-11-29T18:39:30.505Z,22.10
2022-11-29T18:41:57.918Z,20.37
2022-11-29T18:44:29.500Z,21.57
2022-11-29T18:46:57.352Z,22.20
2022-11-29T18:49:26.256Z,21.97
2022-11-29T18:51:53.677Z,22.53
2022-11-29T18:54:21.108Z,23.40
2022-11-29T18:56:50.682Z,26.43
2022-11-29T18:59:18.502Z,25.33
2022-11-29T19:01:47.556Z,23.43
2022-11-29T19:04:15.890Z,23.33
2022-11-29T19:06:45.035Z,20.63
2022-11-29T19:09:13.293Z,22.37
2022-11-29T19:11:40.779Z,20.73
2022-11-29T19:14:11.084Z,20.23
2022-11-29T19:16:39.396Z,19.33
2022-11-29T19:19:06.761Z,20.23
2022-11-29T19:21:35.140Z,16.53
2022-11-29T19:24:05.400Z,16.17
2022-11-29T19:26:33.507Z,16.27
2022-11-29T19:29:01.511Z,17.17
2022-11-29T19:31:29.569Z,16.30
2022-11-29T19:33:57.887Z,17.63
2022-11-29T19:36:25.914Z,18.10
2022-11-29T19:38:54.528Z,16.60
2022-11-29T19:41:26.233Z,16.97
2022-11-29T19:43:53.927Z,18.73
2022-11-29T19:46:22.530Z,18.20
2022-11-29T19:48:50.535Z,18.27
2022-11-29T19:51:18.563Z,17.70
2022-11-29T19:53:46.398Z,18.03
2022-11-29T19:56:14.634Z,17.93
2022-11-29T19:58:43.837Z,21.13
2022-11-29T20:01:12.849Z,19.70
2022-11-29T20:03:40.569Z,27.53
2022-11-29T20:06:08.714Z,24.37
2022-11-29T20:08:36.768Z,24.63
2022-11-29T20:11:07.374Z,21.87
2022-11-29T20:13:34.795Z,21.10
2022-11-29T20:16:04.266Z,23.97
2022-11-29T20:18:32.275Z,22.87
2022-11-29T20:21:03.910Z,23.23
2022-11-29T20:23:31.459Z,22.73
2022-11-29T20:25:59.106Z,20.43
2022-11-29T20:28:26.740Z,19.73
2022-11-29T20:30:54.309Z,19.80
2022-11-29T20:33:25.250Z,18.20
2022-11-29T20:35:57.634Z,18.90
2022-11-29T20:38:29.368Z,19.03
2022-11-29T20:41:03.019Z,19.87
2022-11-29T20:43:35.682Z,19.33
2022-11-29T20:46:03.274Z,19.50
2022-11-29T20:48:32.313Z,19.20
2022-11-29T20:51:00.877Z,17.93
2022-11-29T20:53:32.525Z,18.90
2022-11-29T20:56:00.011Z,17.27
2022-11-29T20:58:27.658Z,17.50
2022-11-29T21:00:55.867Z,18.00
2022-11-29T21:03:24.139Z,18.70
2022-11-29T21:05:53.227Z,17.30
2022-11-29T21:08:22.103Z,17.73
2022-11-29T21:10:49.901Z,19.27
2022-11-29T21:13:17.952Z,18.03
2022-11-29T21:15:45.702Z,18.23
2022-11-29T21:18:22.288Z,19.00
2022-11-29T21:20:54.632Z,19.67
2022-11-29T21:23:26.453Z,19.17
2022-11-29T21:25:57.421Z,20.20
2022-11-29T21:28:29.459Z,20.47
2022-11-29T21:30:57.102Z,19.20
2022-11-29T21:33:24.787Z,18.53
2022-11-29T21:35:53.915Z,19.60
2022-11-29T21:38:23.988Z,20.17
2022-11-29T21:40:51.481Z,20.07
2022-11-29T21:43:20.705Z,19.47
2022-11-29T21:45:50.144Z,19.50
2022-11-29T21:48:34.909Z,18.93
2022-11-29T21:51:02.465Z,18.47
2022-11-29T21:53:31.230Z,19.77
2022-11-29T21:55:59.011Z,19.20
2022-11-29T21:58:26.863Z,19.23
2022-11-29T22:00:54.297Z,18.67
2022-11-29T22:03:21.755Z,18.50
2022-11-29T22:05:49.198Z,18.10
2022-11-29T22:08:16.582Z,20.63
2022-11-29T22:10:45.334Z,20.33
2022-11-29T22:13:12.728Z,21.80
2022-11-29T22:15:40.181Z,20.20
2022-11-29T22:18:07.785Z,21.33
2022-11-29T22:20:35.189Z,19.00
2022-11-29T22:23:02.611Z,19.97
2022-11-29T22:25:30.052Z,20.27
2022-11-29T22:27:58.745Z,18.60
2022-11-29T22:30:26.158Z,18.90
2022-11-29T22:32:53.605Z,19.43
2022-11-29T22:35:21.014Z,19.77
2022-11-29T22:37:48.438Z,19.53
2022-11-29T22:40:17.054Z,17.93
2022-11-29T22:42:44.478Z,19.40
2022-11-29T22:45:13.510Z,20.30
2022-11-29T22:47:40.936Z,20.57
2022-11-29T22:50:08.868Z,20.37
2022-11-29T22:52:36.300Z,20.80
2022-11-29T22:55:05.165Z,20.60
2022-11-29T22:57:32.807Z,20.23
2022-11-29T23:00:00.229Z,19.70
2022-11-29T23:02:29.083Z,20.00
2022-11-29T23:04:56.626Z,19.40
2022-11-29T23:07:24.109Z,19.93
2022-11-29T23:09:51.550Z,20.90
2022-11-29T23:12:19.122Z,19.57
2022-11-29T23:14:49.230Z,21.00
2022-11-29T23:17:20.449Z,20.60
2022-11-29T23:19:49.192Z,21.33
2022-11-29T23:22:16.588Z,22.97
2022-11-29T23:24:44.277Z,21.37
2022-11-29T23:27:11.906Z,21.20
2022-11-29T23:29:39.318Z,20.87
2022-11-29T23:32:06.783Z,19.97
2022-11-29T23:34:34.473Z,19.10
2022-11-29T23:37:03.256Z,20.33
2022-11-29T23:39:30.643Z,19.37
2022-11-29T23:41:58.153Z,19.10
2022-11-29T23:44:25.632Z,19.50
2022-11-29T23:46:53.080Z,18.70
2022-11-29T23:49:20.564Z,19.57
2022-11-29T23:51:47.980Z,20.17
2022-11-29T23:54:16.758Z,19.73
2022-11-29T23:56:44.226Z,20.67
2022-11-29T23:59:11.698Z,20.67
